createdAt,value
2018-03-08T00:01:34.366Z,92.50
2018-03-08T00:04:01.348Z,93.60
2018-03-08T00:06:28.234Z,93.00
2018-03-08T00:08:55.222Z,92.50
2018-03-08T00:11:22.886Z,92.80
2018-03-08T00:13:50.653Z,92.90
2018-03-08T00:16:17.642Z,92.90
2018-03-08T00:18:43.893Z,93.00
2018-03-08T00:21:11.094Z,93.80
2018-03-08T00:23:38.864Z,94.60
2018-03-08T00:26:06.546Z,94.50
2018-03-08T00:28:33.538Z,93.50
2018-03-08T00:30:59.789Z,93.50
2018-03-08T00:33:26.366Z,93.30
2018-03-08T00:35:54.645Z,93.80
2018-03-08T00:38:21.643Z,93.80
2018-03-08T00:40:47.914Z,93.80
2018-03-08T00:43:15.193Z,93.70
2018-03-08T00:45:42.174Z,93.60
2018-03-08T00:48:08.413Z,93.60
2018-03-08T00:50:35.010Z,93.60
2018-03-08T00:53:01.358Z,93.60
2018-03-08T00:55:29.538Z,93.10
2018-03-08T00:57:57.705Z,93.10
2018-03-08T01:00:25.989Z,94.00
2018-03-08T01:02:52.962Z,94.50
2018-03-08T01:05:20.102Z,94.50
2018-03-08T01:07:47.973Z,94.80
2018-03-08T01:10:14.963Z,95.00
2018-03-08T01:12:41.218Z,95.00
2018-03-08T01:15:08.109Z,95.10
2018-03-08T01:17:35.102Z,94.80
2018-03-08T01:20:03.633Z,94.80
2018-03-08T01:22:30.661Z,94.00
2018-03-08T01:24:56.901Z,93.70
2018-03-08T01:27:24.638Z,94.40
2018-03-08T01:29:51.141Z,94.50
2018-03-08T01:32:18.129Z,95.20
2018-03-08T01:34:44.493Z,95.20
2018-03-08T01:37:11.681Z,95.60
2018-03-08T01:39:38.666Z,94.10
2018-03-08T01:42:05.742Z,94.10
2018-03-08T01:44:33.501Z,93.60
2018-03-08T01:47:00.130Z,93.70
2018-03-08T01:49:26.377Z,94.50
2018-03-08T01:52:05.250Z,93.80
2018-03-08T01:54:32.233Z,94.20
2018-03-08T01:56:58.490Z,94.20
2018-03-08T01:59:26.306Z,94.10
2018-03-08T02:01:54.186Z,94.20
2018-03-08T02:04:21.165Z,94.50
2018-03-08T02:06:48.178Z,94.50
2018-03-08T02:09:15.154Z,95.10
2018-03-08T02:11:41.395Z,94.30
2018-03-08T02:14:08.301Z,95.10
2018-03-08T02:16:34.554Z,95.10
2018-03-08T02:19:01.545Z,94.70
2018-03-08T02:21:28.561Z,94.70
2018-03-08T02:23:56.321Z,94.90
2018-03-08T02:26:23.318Z,94.80
2018-03-08T02:28:49.582Z,94.90
2018-03-08T02:31:16.562Z,94.70
2018-03-08T02:33:43.560Z,94.80
2018-03-08T02:36:10.566Z,94.70
2018-03-08T02:38:37.560Z,94.60
2018-03-08T02:41:03.811Z,94.60
2018-03-08T02:43:31.519Z,94.00
2018-03-08T02:45:58.503Z,94.10
2018-03-08T02:48:24.783Z,94.10
2018-03-08T02:50:51.358Z,94.50
2018-03-08T02:53:18.338Z,95.30
2018-03-08T02:55:44.706Z,95.40
2018-03-08T02:58:12.201Z,95.40
2018-03-08T03:00:39.978Z,94.80
2018-03-08T03:03:07.736Z,94.80
2018-03-08T03:05:36.222Z,94.20
2018-03-08T03:08:03.252Z,94.40
2018-03-08T03:10:30.237Z,95.30
2018-03-08T03:12:57.261Z,95.00
2018-03-08T03:15:23.552Z,95.10
2018-03-08T03:17:50.765Z,94.50
2018-03-08T03:20:18.638Z,94.30
2018-03-08T03:22:46.413Z,95.10
2018-03-08T03:25:14.378Z,95.10
2018-03-08T03:27:40.709Z,95.10
2018-03-08T03:30:06.955Z,94.80
2018-03-08T03:32:34.214Z,95.10
2018-03-08T03:35:01.205Z,94.80
2018-03-08T03:37:28.253Z,94.90
2018-03-08T03:39:54.489Z,94.60
2018-03-08T03:42:21.706Z,94.20
2018-03-08T03:44:48.681Z,94.80
2018-03-08T03:47:14.959Z,94.90
2018-03-08T03:49:41.538Z,94.80
2018-03-08T03:52:08.522Z,95.10
2018-03-08T03:54:34.869Z,95.10
2018-03-08T03:57:03.237Z,95.40
2018-03-08T03:59:30.458Z,95.30
2018-03-08T04:01:58.437Z,95.20
2018-03-08T04:04:25.423Z,94.90
2018-03-08T04:06:52.543Z,94.90
2018-03-08T04:09:19.513Z,95.00
2018-03-08T04:11:46.557Z,94.90
2018-03-08T04:14:12.813Z,94.20
2018-03-08T04:16:39.935Z,94.60
2018-03-08T04:19:06.925Z,95.40
2018-03-08T04:21:33.934Z,95.40
2018-03-08T04:24:01.706Z,95.30
2018-03-08T04:26:29.485Z,95.30
2018-03-08T04:28:56.470Z,95.80
2018-03-08T04:31:23.578Z,95.70
2018-03-08T04:33:50.638Z,95.00
2018-03-08T04:36:18.514Z,95.80
2018-03-08T04:38:45.514Z,95.80
2018-03-08T04:41:11.765Z,95.80
2018-03-08T04:43:38.845Z,95.50
2018-03-08T04:46:05.831Z,95.00
2018-03-08T04:48:32.097Z,95.00
2018-03-08T04:50:58.674Z,95.10
2018-03-08T04:53:25.666Z,95.10
2018-03-08T04:55:52.991Z,95.10
2018-03-08T04:58:21.164Z,95.30
2018-03-08T05:00:49.241Z,94.60
2018-03-08T05:03:16.270Z,95.00
2018-03-08T05:05:44.978Z,94.80
2018-03-08T05:08:11.961Z,94.50
2018-03-08T05:10:38.221Z,94.40
2018-03-08T05:13:05.525Z,94.90
2018-03-08T05:15:32.509Z,94.90
2018-03-08T05:17:58.830Z,95.00
2018-03-08T05:20:26.066Z,95.70
2018-03-08T05:22:53.529Z,95.40
2018-03-08T05:25:20.521Z,94.60
2018-03-08T05:27:46.773Z,94.60
2018-03-08T05:30:13.354Z,94.90
2018-03-08T05:32:40.362Z,96.60
2018-03-08T05:35:06.717Z,95.80
2018-03-08T05:37:33.281Z,99.90
2018-03-08T05:39:59.614Z,99.40
2018-03-08T05:42:27.197Z,99.00
2018-03-08T05:44:54.173Z,95.50
2018-03-08T05:47:21.198Z,95.40
2018-03-08T05:49:48.181Z,99.20
2018-03-08T05:52:15.294Z,99.00
2018-03-08T05:54:42.293Z,95.10
2018-03-08T05:57:09.309Z,94.50
2018-03-08T05:59:37.212Z,95.40
2018-03-08T06:02:03.533Z,95.40
2018-03-08T06:04:29.773Z,96.60
2018-03-08T06:06:56.693Z,94.00
2018-03-08T06:09:23.666Z,93.40
2018-03-08T06:11:50.901Z,93.40
2018-03-08T06:14:17.897Z,93.60
2018-03-08T06:16:45.229Z,93.80
2018-03-08T06:19:11.485Z,95.30
2018-03-08T06:21:38.397Z,95.00
2018-03-08T06:24:06.078Z,96.50
2018-03-08T06:26:34.148Z,96.30
2018-03-08T06:29:01.134Z,96.60
2018-03-08T06:31:27.381Z,96.70
2018-03-08T06:33:53.966Z,94.80
2018-03-08T06:36:20.965Z,95.60
2018-03-08T06:38:47.970Z,95.40
2018-03-08T06:41:14.954Z,94.60
2018-03-08T06:43:41.878Z,94.60
2018-03-08T06:46:10.765Z,96.90
2018-03-08T06:48:37.749Z,94.70
2018-03-08T06:51:04.874Z,94.60
2018-03-08T06:53:32.741Z,94.50
2018-03-08T06:55:59.746Z,95.50
2018-03-08T06:58:26.004Z,95.60
2018-03-08T07:00:53.493Z,94.70
2018-03-08T07:03:21.677Z,92.80
2018-03-08T07:05:49.757Z,92.80
2018-03-08T07:08:18.138Z,92.70
2018-03-08T07:10:45.157Z,92.80
2018-03-08T07:13:12.337Z,92.80
2018-03-08T07:15:39.333Z,91.60
2018-03-08T07:18:05.593Z,91.50
2018-03-08T07:20:32.669Z,90.60
2018-03-08T07:22:59.726Z,90.90
2018-03-08T07:25:26.726Z,90.70
2018-03-08T07:27:53.025Z,90.80
2018-03-08T07:30:20.373Z,90.90
2018-03-08T07:32:48.242Z,91.40
2018-03-08T07:35:15.232Z,91.00
2018-03-08T07:37:41.482Z,91.00
2018-03-08T07:40:08.085Z,90.30
2018-03-08T07:42:36.159Z,90.50
2018-03-08T07:45:03.199Z,90.60
2018-03-08T07:47:30.982Z,89.50
2018-03-08T07:49:57.981Z,89.10
2018-03-08T07:52:25.085Z,89.10
2018-03-08T07:54:52.070Z,89.30
2018-03-08T07:57:18.310Z,88.40
2018-03-08T07:59:45.418Z,89.30
2018-03-08T08:02:12.408Z,88.80
2018-03-08T08:04:52.629Z,88.80
2018-03-08T08:07:32.882Z,89.30
2018-03-08T08:09:59.866Z,89.30
2018-03-08T08:12:26.157Z,89.20
2018-03-08T08:14:52.705Z,87.90
2018-03-08T08:17:19.689Z,87.50
2018-03-08T08:19:46.718Z,87.50
2018-03-08T08:22:14.578Z,86.30
2018-03-08T08:24:42.377Z,87.00
2018-03-08T08:27:08.618Z,87.00
2018-03-08T08:29:35.637Z,87.40
2018-03-08T08:32:02.662Z,85.30
2018-03-08T08:34:28.906Z,85.40
2018-03-08T08:36:55.566Z,84.90
2018-03-08T08:39:22.554Z,84.40
2018-03-08T08:41:49.677Z,84.30
2018-03-08T08:44:16.665Z,82.70
2018-03-08T08:46:43.897Z,82.60
2018-03-08T08:49:10.838Z,83.70
2018-03-08T08:51:37.854Z,82.60
2018-03-08T08:54:04.114Z,82.80
2018-03-08T08:56:31.487Z,82.10
2018-03-08T08:58:59.658Z,81.00
2018-03-08T09:01:27.842Z,81.10
2018-03-08T09:03:55.506Z,80.10
2018-03-08T09:06:23.274Z,81.80
2018-03-08T09:08:50.263Z,80.70
2018-03-08T09:11:16.514Z,80.50
2018-03-08T09:13:43.299Z,77.70
2018-03-08T09:16:11.262Z,79.20
2018-03-08T09:18:37.610Z,78.20
2018-03-08T09:21:05.745Z,77.40
2018-03-08T09:23:32.602Z,77.30
2018-03-08T09:25:58.852Z,78.40
2018-03-08T09:28:25.101Z,77.10
2018-03-08T09:30:52.114Z,78.90
2018-03-08T09:33:19.317Z,78.00
2018-03-08T09:35:46.317Z,76.00
2018-03-08T09:38:12.558Z,75.90
2018-03-08T09:40:38.858Z,75.30
2018-03-08T09:43:06.194Z,75.20
2018-03-08T09:45:33.195Z,74.90
2018-03-08T09:48:00.204Z,74.80
2018-03-08T09:50:28.077Z,75.60
2018-03-08T09:52:55.058Z,74.10
2018-03-08T09:55:21.306Z,74.10
2018-03-08T09:57:47.898Z,74.90
2018-03-08T10:00:15.738Z,76.10
2018-03-08T10:02:42.730Z,75.90
2018-03-08T10:05:10.696Z,73.00
2018-03-08T10:07:37.674Z,70.90
2018-03-08T10:10:03.923Z,70.80
2018-03-08T10:12:30.522Z,70.80
2018-03-08T10:14:57.498Z,71.80
2018-03-08T10:17:23.857Z,71.30
2018-03-08T10:19:50.114Z,69.20
2018-03-08T10:22:17.398Z,69.40
2018-03-08T10:24:45.284Z,69.20
2018-03-08T10:27:12.278Z,67.90
2018-03-08T10:29:39.382Z,67.40
2018-03-08T10:32:07.142Z,68.20
2018-03-08T10:34:33.408Z,68.00
2018-03-08T10:36:59.689Z,68.70
2018-03-08T10:41:53.829Z,66.20
2018-03-08T10:44:21.485Z,69.30
2018-03-08T10:46:47.812Z,69.20
2018-03-08T10:49:14.050Z,65.50
2018-03-08T10:51:40.601Z,66.50
2018-03-08T10:54:07.594Z,66.10
2018-03-08T10:56:33.934Z,65.80
2018-03-08T10:59:01.053Z,64.50
2018-03-08T11:01:32.955Z,64.20
2018-03-08T11:04:05.394Z,64.10
2018-03-08T11:06:36.534Z,60.90
2018-03-08T11:09:03.625Z,57.90
2018-03-08T11:11:29.889Z,58.20
2018-03-08T11:13:57.177Z,59.40
2018-03-08T11:16:24.182Z,60.00
2018-03-08T11:18:50.435Z,60.30
2018-03-08T11:21:17.525Z,59.20
2018-03-08T11:23:45.293Z,57.30
2018-03-08T11:26:12.285Z,59.30
2018-03-08T11:28:39.805Z,59.30
2018-03-08T11:31:06.886Z,56.90
2018-03-08T11:33:33.134Z,56.70
2018-03-08T11:35:59.627Z,57.50
2018-03-08T11:38:27.920Z,53.10
2018-03-08T11:40:54.909Z,52.30
2018-03-08T11:43:21.951Z,52.00
2018-03-08T11:45:48.178Z,54.30
2018-03-08T11:48:14.430Z,54.20
2018-03-08T11:50:40.900Z,53.80
2018-03-08T11:53:07.261Z,55.60
2018-03-08T11:55:35.021Z,51.20
2018-03-08T11:58:02.285Z,51.20
2018-03-08T12:00:30.053Z,50.70
2018-03-08T12:02:57.826Z,50.80
2018-03-08T12:05:25.701Z,48.80
2018-03-08T12:07:52.690Z,51.10
2018-03-08T12:10:18.938Z,51.30
2018-03-08T12:12:45.206Z,52.30
2018-03-08T12:15:11.453Z,50.40
2018-03-08T12:17:38.532Z,50.90
2018-03-08T12:20:05.861Z,50.90
2018-03-08T12:22:32.846Z,49.90
2018-03-08T12:25:00.070Z,50.00
2018-03-08T12:27:27.077Z,49.10
2018-03-08T12:29:53.361Z,49.30
2018-03-08T12:32:20.626Z,48.80
2018-03-08T12:34:47.666Z,49.10
2018-03-08T12:37:15.746Z,47.10
2018-03-08T12:39:43.512Z,48.90
2018-03-08T12:42:11.186Z,48.30
2018-03-08T12:44:38.175Z,45.40
2018-03-08T12:47:05.182Z,45.30
2018-03-08T12:49:32.164Z,47.20
2018-03-08T12:51:59.375Z,47.10
2018-03-08T12:54:26.757Z,45.70
2018-03-08T12:56:53.798Z,47.30
2018-03-08T12:59:21.478Z,46.70
2018-03-08T13:01:49.399Z,45.00
2018-03-08T13:04:15.635Z,45.20
2018-03-08T13:06:42.730Z,42.80
2018-03-08T13:09:09.716Z,42.60
2018-03-08T13:11:35.960Z,42.60
2018-03-08T13:14:02.557Z,45.20
2018-03-08T13:16:29.562Z,43.60
2018-03-08T13:18:55.971Z,43.60
2018-03-08T13:21:22.997Z,44.50
2018-03-08T13:23:50.973Z,43.70
2018-03-08T13:26:17.962Z,43.70
2018-03-08T13:28:44.210Z,43.80
2018-03-08T13:31:10.701Z,44.70
2018-03-08T13:33:38.354Z,43.90
2018-03-08T13:36:04.682Z,44.00
2018-03-08T13:38:31.866Z,44.30
2018-03-08T13:40:58.925Z,43.40
2018-03-08T13:43:25.861Z,43.20
2018-03-08T13:45:52.861Z,43.50
2018-03-08T13:48:19.099Z,43.40
2018-03-08T13:50:46.196Z,43.70
2018-03-08T13:53:14.002Z,45.50
2018-03-08T13:55:40.269Z,44.90
2018-03-08T13:58:06.525Z,45.40
2018-03-08T14:00:33.701Z,43.90
2018-03-08T14:03:00.741Z,43.70
2018-03-08T14:05:28.517Z,44.50
2018-03-08T14:07:55.506Z,44.60
2018-03-08T14:10:21.748Z,44.50
2018-03-08T14:12:48.389Z,43.20
2018-03-08T14:15:14.613Z,43.40
2018-03-08T14:17:40.945Z,44.30
2018-03-08T14:20:07.917Z,44.80
2018-03-08T14:22:34.157Z,44.60
2018-03-08T14:25:01.159Z,41.20
2018-03-08T14:27:28.156Z,41.50
2018-03-08T14:29:54.406Z,41.50
2018-03-08T14:32:21.430Z,41.10
2018-03-08T14:34:48.341Z,42.40
2018-03-08T14:37:15.322Z,43.90
2018-03-08T14:39:41.566Z,43.70
2018-03-08T14:42:08.880Z,43.00
2018-03-08T14:44:35.125Z,43.90
2018-03-08T14:47:02.898Z,44.60
2018-03-08T14:49:30.763Z,43.80
2018-03-08T14:51:57.754Z,42.50
2018-03-08T14:54:24.034Z,42.50
2018-03-08T14:56:50.692Z,42.50
2018-03-08T14:59:18.788Z,40.80
2018-03-08T15:01:45.037Z,40.70
2018-03-08T15:04:11.290Z,40.30
2018-03-08T15:06:38.186Z,41.50
2018-03-08T15:09:05.275Z,43.40
2018-03-08T15:11:31.510Z,43.30
2018-03-08T15:13:57.772Z,44.00
2018-03-08T15:16:24.019Z,44.60
2018-03-08T15:18:50.341Z,44.60
2018-03-08T15:21:17.338Z,45.80
2018-03-08T15:23:45.098Z,46.80
2018-03-08T15:26:12.090Z,47.40
2018-03-08T15:28:39.925Z,47.40
2018-03-08T15:31:06.970Z,48.50
2018-03-08T15:33:34.954Z,48.90
2018-03-08T15:36:01.934Z,48.80
2018-03-08T15:38:28.186Z,48.70
2018-03-08T15:40:54.741Z,49.60
2018-03-08T15:43:22.443Z,49.30
2018-03-08T15:45:50.314Z,49.50
2018-03-08T15:48:18.043Z,49.60
2018-03-08T15:50:44.310Z,50.30
2018-03-08T15:53:10.662Z,49.60
2018-03-08T15:55:38.012Z,49.90
2018-03-08T15:58:06.096Z,51.10
2018-03-08T16:00:33.973Z,51.20
2018-03-08T16:03:00.245Z,52.60
2018-03-08T16:05:27.245Z,52.70
2018-03-08T16:08:17.322Z,53.90
2018-03-08T16:10:44.586Z,54.00
2018-03-08T16:13:11.626Z,55.70
2018-03-08T16:15:38.587Z,55.80
2018-03-08T16:18:05.600Z,55.00
2018-03-08T16:20:32.703Z,54.90
2018-03-08T16:22:59.709Z,55.30
2018-03-08T16:25:26.793Z,55.40
2018-03-08T16:27:54.462Z,56.50
2018-03-08T16:30:22.342Z,56.20
2018-03-08T16:32:50.223Z,56.90
2018-03-08T16:35:16.557Z,57.00
2018-03-08T16:37:42.813Z,57.10
2018-03-08T16:40:09.098Z,58.60
2018-03-08T16:42:36.270Z,58.40
2018-03-08T16:45:03.942Z,60.80
2018-03-08T16:47:30.951Z,60.30
2018-03-08T16:49:57.922Z,60.40
2018-03-08T16:52:24.166Z,60.00
2018-03-08T16:54:51.175Z,60.80
2018-03-08T16:57:18.171Z,60.40
2018-03-08T16:59:46.064Z,60.90
2018-03-08T17:02:12.310Z,60.90
2018-03-08T17:04:38.565Z,61.00
2018-03-08T17:07:05.633Z,61.40
2018-03-08T17:09:31.883Z,61.40
2018-03-08T17:11:58.149Z,61.20
2018-03-08T17:14:25.506Z,63.90
2018-03-08T17:16:52.490Z,63.50
2018-03-08T17:19:18.930Z,63.50
2018-03-08T17:21:46.043Z,63.30
2018-03-08T17:24:14.029Z,64.10
2018-03-08T17:26:40.281Z,64.10
2018-03-08T17:29:07.301Z,63.90
2018-03-08T17:31:34.966Z,64.80
2018-03-08T17:34:01.958Z,64.80
2018-03-08T17:36:28.202Z,64.80
2018-03-08T17:38:55.223Z,64.90
2018-03-08T17:41:23.279Z,64.80
2018-03-08T17:43:50.995Z,64.70
2018-03-08T17:46:17.245Z,64.50
2018-03-08T17:48:43.501Z,66.20
2018-03-08T17:51:10.078Z,66.10
2018-03-08T17:53:37.146Z,66.30
2018-03-08T17:56:03.402Z,65.90
2018-03-08T17:58:30.706Z,66.90
2018-03-08T18:00:57.718Z,66.90
2018-03-08T18:03:24.826Z,66.90
2018-03-08T18:05:52.723Z,68.00
2018-03-08T18:08:19.635Z,68.00
2018-03-08T18:10:46.642Z,67.40
2018-03-08T18:13:12.885Z,67.40
2018-03-08T18:15:39.788Z,66.70
2018-03-08T18:18:06.050Z,67.30
2018-03-08T18:20:33.265Z,68.70
2018-03-08T18:23:00.986Z,67.90
2018-03-08T18:25:27.989Z,67.90
2018-03-08T18:27:55.863Z,68.60
2018-03-08T18:30:22.861Z,69.30
2018-03-08T18:32:49.113Z,69.20
2018-03-08T18:35:16.396Z,69.50
2018-03-08T18:37:42.754Z,69.10
2018-03-08T18:40:10.025Z,69.40
2018-03-08T18:42:37.285Z,70.00
2018-03-08T18:45:04.744Z,70.50
2018-03-08T18:47:31.161Z,70.20
2018-03-08T18:49:57.573Z,71.70
2018-03-08T18:52:24.986Z,71.40
2018-03-08T18:54:52.260Z,71.40
2018-03-08T18:57:18.685Z,71.90
2018-03-08T18:59:45.823Z,72.50
2018-03-08T19:02:12.116Z,71.70
2018-03-08T19:04:38.379Z,72.10
2018-03-08T19:07:06.140Z,72.10
2018-03-08T19:09:34.017Z,71.90
2018-03-08T19:12:01.017Z,72.30
2018-03-08T19:14:27.277Z,72.40
2018-03-08T19:16:53.845Z,72.40
2018-03-08T19:19:22.229Z,72.10
2018-03-08T19:21:50.130Z,71.80
2018-03-08T19:24:17.138Z,71.80
2018-03-08T19:26:44.436Z,71.70
2018-03-08T19:29:10.705Z,73.80
2018-03-08T19:31:38.134Z,72.70
2018-03-08T19:34:05.232Z,72.40
2018-03-08T19:36:33.128Z,71.60
2018-03-08T19:38:59.413Z,71.60
2018-03-08T19:41:25.667Z,72.30
2018-03-08T19:43:52.755Z,72.90
2018-03-08T19:46:19.737Z,72.70
2018-03-08T19:48:45.996Z,72.70
2018-03-08T19:51:12.467Z,73.00
2018-03-08T19:53:38.810Z,71.90
2018-03-08T19:56:05.916Z,73.80
2018-03-08T19:58:33.017Z,73.80
2018-03-08T20:01:00.007Z,72.80
2018-03-08T20:03:27.405Z,72.90
2018-03-08T20:05:55.404Z,73.70
2018-03-08T20:08:23.176Z,73.60
2018-03-08T20:10:50.956Z,73.80
2018-03-08T20:13:17.947Z,73.30
2018-03-08T20:15:44.238Z,73.30
2018-03-08T20:18:12.005Z,74.30
2018-03-08T20:20:39.866Z,74.20
2018-03-08T20:23:06.911Z,73.60
2018-03-08T20:25:33.876Z,73.70
2018-03-08T20:28:01.963Z,74.50
2018-03-08T20:30:28.963Z,73.70
2018-03-08T20:32:55.327Z,73.70
2018-03-08T20:35:22.620Z,74.50
2018-03-08T20:37:48.966Z,73.50
2018-03-08T20:40:15.887Z,73.60
2018-03-08T20:42:43.874Z,74.50
2018-03-08T20:45:10.133Z,74.50
2018-03-08T20:47:37.252Z,74.80
2018-03-08T20:50:04.234Z,75.10
2018-03-08T20:52:32.066Z,75.10
2018-03-08T20:54:59.934Z,76.70
2018-03-08T20:57:26.194Z,76.60
2018-03-08T20:59:53.340Z,74.50
2018-03-08T21:02:20.352Z,74.10
2018-03-08T21:04:49.084Z,75.60
2018-03-08T21:07:15.438Z,75.60
2018-03-08T21:09:41.705Z,76.00
2018-03-08T21:12:08.285Z,75.40
2018-03-08T21:14:36.367Z,74.10
2018-03-08T21:17:04.026Z,74.60
2018-03-08T21:19:31.904Z,74.60
2018-03-08T21:21:59.670Z,74.30
2018-03-08T21:24:27.341Z,73.60
2018-03-08T21:26:54.331Z,73.50
2018-03-08T21:29:21.545Z,73.20
2018-03-08T21:31:49.734Z,74.70
2018-03-08T21:34:16.734Z,74.70
2018-03-08T21:36:43.829Z,75.40
2018-03-08T21:39:11.810Z,74.00
2018-03-08T21:41:38.810Z,74.60
2018-03-08T21:44:06.625Z,74.60
2018-03-08T21:46:34.413Z,74.80
2018-03-08T21:49:01.650Z,74.80
2018-03-08T21:51:28.634Z,72.60
2018-03-08T21:53:54.874Z,72.60
2018-03-08T21:56:21.482Z,72.10
2018-03-08T21:58:49.561Z,73.20
2018-03-08T22:01:16.618Z,73.00
2018-03-08T22:03:43.584Z,73.80
2018-03-08T22:06:11.324Z,73.90
2018-03-08T22:08:39.197Z,73.50
2018-03-08T22:11:06.197Z,73.50
2018-03-08T22:13:33.202Z,73.40
2018-03-08T22:16:00.869Z,74.20
2018-03-08T22:18:27.869Z,73.50
2018-03-08T22:20:55.193Z,73.50
2018-03-08T22:23:22.186Z,73.30
2018-03-08T22:25:49.189Z,73.30
2018-03-08T22:28:16.234Z,72.70
2018-03-08T22:30:44.107Z,72.40
2018-03-08T22:33:11.099Z,72.30
2018-03-08T22:35:38.325Z,72.30
2018-03-08T22:38:05.325Z,72.80
2018-03-08T22:40:31.565Z,72.90
2018-03-08T22:42:58.691Z,72.80
2018-03-08T22:45:25.712Z,73.30
2018-03-08T22:47:52.725Z,73.30
2018-03-08T22:50:18.993Z,73.30
2018-03-08T22:52:46.661Z,73.50
2018-03-08T22:55:13.653Z,73.10
2018-03-08T22:57:39.910Z,73.10
2018-03-08T23:00:07.397Z,73.30
2018-03-08T23:02:33.645Z,73.30
2018-03-08T23:05:01.421Z,73.00
2018-03-08T23:07:28.420Z,73.70
2018-03-08T23:09:55.522Z,73.70
2018-03-08T23:12:22.575Z,72.50
2018-03-08T23:14:50.548Z,73.50
2018-03-08T23:17:18.413Z,73.80
2018-03-08T23:19:45.397Z,74.30
2018-03-08T23:22:12.413Z,74.30
2018-03-08T23:24:39.673Z,74.80
2018-03-08T23:27:07.450Z,75.20
2018-03-08T23:29:34.459Z,75.10
2018-03-08T23:32:00.722Z,74.90
2018-03-08T23:34:29.317Z,73.90
2018-03-08T23:36:57.201Z,75.40
2018-03-08T23:39:24.178Z,74.90
2018-03-08T23:41:51.508Z,74.90
2018-03-08T23:44:19.162Z,76.00
2018-03-08T23:46:46.842Z,76.70
2018-03-08T23:49:13.829Z,76.40
2018-03-08T23:54:37.322Z,76.30
2018-03-08T23:57:04.728Z,75.90
2018-03-08T23:59:32.724Z,76.30
